createdAt,value
2018-04-07T00:00:59.310Z,6.60
2018-04-07T00:01:59.303Z,6.30
2018-04-07T00:02:59.311Z,6.60
2018-04-07T00:03:59.324Z,8.60
2018-04-07T00:04:59.299Z,7.60
2018-04-07T00:05:59.311Z,6.80
2018-04-07T00:06:59.299Z,6.70
2018-04-07T00:07:59.333Z,7.60
2018-04-07T00:08:59.301Z,9.30
2018-04-07T00:09:59.317Z,7.50
2018-04-07T00:10:59.304Z,6.70
2018-04-07T00:11:59.358Z,7.40
2018-04-07T00:12:59.306Z,6.00
2018-04-07T00:13:59.315Z,5.60
2018-04-07T00:14:59.309Z,8.00
2018-04-07T00:15:59.310Z,7.20
2018-04-07T00:16:59.309Z,5.90
2018-04-07T00:17:59.316Z,7.00
2018-04-07T00:18:59.303Z,6.80
2018-04-07T00:19:59.311Z,6.40
2018-04-07T00:20:59.311Z,5.70
2018-04-07T00:21:59.396Z,7.40
2018-04-07T00:22:59.315Z,6.50
2018-04-07T00:23:59.312Z,7.20
2018-04-07T00:24:59.322Z,7.70
2018-04-07T00:25:59.316Z,8.80
2018-04-07T00:26:59.317Z,6.00
2018-04-07T00:27:59.314Z,5.20
2018-04-07T00:28:59.339Z,5.20
2018-04-07T00:29:59.319Z,7.70
2018-04-07T00:30:59.315Z,5.70
2018-04-07T00:31:59.368Z,7.60
2018-04-07T00:32:59.314Z,7.80
2018-04-07T00:33:59.322Z,7.00
2018-04-07T00:34:59.307Z,6.50
2018-04-07T00:35:59.318Z,6.10
2018-04-07T00:36:59.318Z,7.10
2018-04-07T00:37:59.322Z,6.20
2018-04-07T00:38:59.321Z,6.80
2018-04-07T00:39:59.329Z,5.90
2018-04-07T00:40:59.324Z,5.80
2018-04-07T00:41:59.317Z,6.20
2018-04-07T00:42:59.314Z,6.50
2018-04-07T00:43:59.327Z,6.10
2018-04-07T00:44:59.317Z,7.50
2018-04-07T00:45:59.329Z,7.00
2018-04-07T00:46:59.321Z,6.70
2018-04-07T00:47:59.332Z,6.70
2018-04-07T00:48:59.322Z,6.30
2018-04-07T00:49:59.324Z,7.30
2018-04-07T00:50:59.311Z,6.30
2018-04-07T00:51:59.312Z,5.20
2018-04-07T00:52:59.317Z,5.50
2018-04-07T00:53:59.321Z,6.80
2018-04-07T00:54:59.327Z,6.40
2018-04-07T00:55:59.327Z,7.60
2018-04-07T00:56:59.336Z,7.10
2018-04-07T00:57:59.353Z,4.90
2018-04-07T00:58:59.314Z,7.40
2018-04-07T00:59:59.320Z,7.10
2018-04-07T01:00:59.327Z,6.00
2018-04-07T01:01:59.326Z,5.50
2018-04-07T01:02:59.318Z,5.00
2018-04-07T01:03:59.326Z,8.20
2018-04-07T01:04:59.314Z,9.70
2018-04-07T01:05:59.322Z,6.50
2018-04-07T01:06:59.326Z,5.70
2018-04-07T01:07:59.321Z,5.70
2018-04-07T01:08:59.327Z,4.70
2018-04-07T01:09:59.328Z,5.50
2018-04-07T01:10:59.316Z,5.30
2018-04-07T01:11:59.335Z,5.30
2018-04-07T01:12:59.343Z,9.00
2018-04-07T01:13:59.326Z,7.30
2018-04-07T01:14:59.316Z,5.10
2018-04-07T01:15:59.329Z,7.80
2018-04-07T01:16:59.326Z,7.30
2018-04-07T01:17:59.321Z,6.60
2018-04-07T01:18:59.327Z,6.90
2018-04-07T01:19:59.332Z,5.60
2018-04-07T01:20:59.318Z,5.00
2018-04-07T01:21:59.330Z,5.50
2018-04-07T01:22:59.911Z,6.50
2018-04-07T01:23:59.912Z,6.70
2018-04-07T01:24:59.339Z,6.50
2018-04-07T01:25:59.328Z,6.80
2018-04-07T01:26:59.329Z,6.50
2018-04-07T01:27:59.325Z,6.40
2018-04-07T01:28:59.466Z,7.20
2018-04-07T01:29:59.320Z,5.00
2018-04-07T01:30:59.336Z,7.30
2018-04-07T01:31:59.339Z,6.10
2018-04-07T01:32:59.345Z,5.40
2018-04-07T01:33:59.331Z,7.70
2018-04-07T01:34:59.329Z,6.00
2018-04-07T01:35:59.325Z,7.50
2018-04-07T01:36:59.324Z,5.70
2018-04-07T01:37:59.331Z,6.40
2018-04-07T01:38:59.426Z,6.40
2018-04-07T01:39:59.333Z,6.30
2018-04-07T01:40:59.333Z,5.70
2018-04-07T01:41:59.345Z,5.00
2018-04-07T01:42:59.334Z,5.80
2018-04-07T01:43:59.326Z,5.20
2018-04-07T01:44:59.331Z,7.80
2018-04-07T01:45:59.329Z,6.00
2018-04-07T01:46:59.329Z,6.50
2018-04-07T01:47:59.333Z,6.50
2018-04-07T01:48:59.403Z,6.10
2018-04-07T01:49:59.327Z,8.50
2018-04-07T01:50:59.325Z,6.30
2018-04-07T01:51:59.320Z,5.80
2018-04-07T01:52:59.378Z,4.70
2018-04-07T01:53:59.331Z,7.20
2018-04-07T01:54:59.330Z,7.00
2018-04-07T01:55:59.337Z,7.00
2018-04-07T01:56:59.336Z,6.20
2018-04-07T01:57:59.336Z,5.80
2018-04-07T01:58:59.331Z,5.10
2018-04-07T01:59:59.339Z,5.50
2018-04-07T02:00:59.333Z,5.90
2018-04-07T02:01:59.327Z,6.50
2018-04-07T02:02:59.338Z,8.30
2018-04-07T02:03:59.332Z,5.60
2018-04-07T02:04:59.330Z,7.70
2018-04-07T02:05:59.348Z,5.00
2018-04-07T02:06:59.351Z,5.20
2018-04-07T02:07:59.324Z,5.10
2018-04-07T02:08:59.381Z,6.10
2018-04-07T02:09:59.334Z,6.40
2018-04-07T02:10:59.327Z,5.20
2018-04-07T02:11:59.331Z,4.80
2018-04-07T02:12:59.353Z,7.40
2018-04-07T02:13:59.343Z,6.60
2018-04-07T02:14:59.327Z,6.30
2018-04-07T02:15:59.346Z,6.50
2018-04-07T02:16:59.325Z,8.80
2018-04-07T02:17:59.332Z,9.50
2018-04-07T02:18:59.365Z,7.10
2018-04-07T02:19:59.329Z,6.30
2018-04-07T02:20:59.332Z,7.20
2018-04-07T02:21:59.323Z,7.00
2018-04-07T02:22:59.329Z,6.20
2018-04-07T02:23:59.336Z,7.10
2018-04-07T02:24:59.340Z,7.90
2018-04-07T02:25:59.329Z,7.60
2018-04-07T02:26:59.344Z,5.80
2018-04-07T02:27:59.319Z,6.20
2018-04-07T02:28:59.384Z,5.90
2018-04-07T02:29:59.330Z,5.80
2018-04-07T02:30:59.331Z,5.80
2018-04-07T02:31:59.331Z,6.60
2018-04-07T02:32:59.379Z,7.50
2018-04-07T02:33:59.338Z,5.40
2018-04-07T02:34:59.347Z,6.00
2018-04-07T02:35:59.323Z,7.40
2018-04-07T02:36:59.328Z,4.90
2018-04-07T02:37:59.329Z,5.10
2018-04-07T02:38:59.335Z,6.50
2018-04-07T02:39:59.347Z,6.40
2018-04-07T02:40:59.334Z,6.00
2018-04-07T02:41:59.334Z,6.90
2018-04-07T02:42:59.352Z,6.60
2018-04-07T02:43:59.364Z,5.50
2018-04-07T02:44:59.337Z,5.30
2018-04-07T02:45:59.320Z,6.10
2018-04-07T02:46:59.338Z,6.20
2018-04-07T02:47:59.337Z,7.20
2018-04-07T02:48:59.337Z,4.70
2018-04-07T02:49:59.326Z,6.00
2018-04-07T02:50:59.330Z,6.10
2018-04-07T02:51:59.329Z,5.60
2018-04-07T02:52:59.341Z,6.80
2018-04-07T02:53:59.329Z,5.30
2018-04-07T02:54:59.329Z,6.50
2018-04-07T02:55:59.321Z,6.70
2018-04-07T02:56:59.330Z,5.80
2018-04-07T02:57:59.330Z,6.20
2018-04-07T02:58:59.322Z,8.50
2018-04-07T02:59:59.346Z,6.40
2018-04-07T03:00:59.325Z,5.20
2018-04-07T03:01:59.331Z,6.10
2018-04-07T03:02:59.330Z,10.20
2018-04-07T03:03:59.328Z,5.80
2018-04-07T03:04:59.336Z,6.80
2018-04-07T03:05:59.318Z,7.10
2018-04-07T03:06:59.338Z,5.60
2018-04-07T03:07:59.331Z,7.80
2018-04-07T03:08:59.336Z,6.40
2018-04-07T03:09:59.324Z,6.10
2018-04-07T03:10:59.325Z,5.30
2018-04-07T03:11:59.325Z,4.90
2018-04-07T03:12:59.322Z,6.20
2018-04-07T03:13:59.328Z,5.50
2018-04-07T03:14:59.320Z,6.00
2018-04-07T03:15:59.324Z,5.70
2018-04-07T03:16:59.324Z,6.00
2018-04-07T03:17:59.328Z,5.50
2018-04-07T03:18:59.317Z,6.00
2018-04-07T03:19:59.323Z,6.10
2018-04-07T03:20:59.315Z,6.70
2018-04-07T03:21:59.324Z,4.80
2018-04-07T03:22:59.345Z,6.80
2018-04-07T03:23:59.325Z,7.90
2018-04-07T03:24:59.314Z,7.00
2018-04-07T03:25:59.316Z,6.00
2018-04-07T03:26:59.315Z,6.50
2018-04-07T03:27:59.318Z,6.20
2018-04-07T03:28:59.313Z,5.80
2018-04-07T03:29:59.317Z,5.70
2018-04-07T03:30:59.316Z,6.30
2018-04-07T03:31:59.311Z,5.70
2018-04-07T03:32:59.325Z,5.60
2018-04-07T03:33:59.315Z,5.20
2018-04-07T03:34:59.307Z,5.70
2018-04-07T03:35:59.314Z,7.70
2018-04-07T03:36:59.330Z,5.00
2018-04-07T03:37:59.311Z,6.50
2018-04-07T03:38:59.315Z,7.00
2018-04-07T03:39:59.315Z,5.00
2018-04-07T03:40:59.311Z,5.80
2018-04-07T03:41:59.309Z,6.50
2018-04-07T03:42:59.304Z,5.80
2018-04-07T03:43:59.302Z,5.60
2018-04-07T03:44:59.314Z,5.70
2018-04-07T03:45:59.316Z,4.70
2018-04-07T03:46:59.315Z,5.20
2018-04-07T03:47:59.319Z,4.80
2018-04-07T03:48:59.304Z,6.20
2018-04-07T03:49:59.331Z,6.80
2018-04-07T03:50:59.318Z,5.50
2018-04-07T03:51:59.304Z,6.40
2018-04-07T03:52:59.303Z,6.00
2018-04-07T03:53:59.305Z,5.80
2018-04-07T03:54:59.309Z,5.40
2018-04-07T03:55:59.304Z,6.70
2018-04-07T03:56:59.312Z,7.10
2018-04-07T03:57:59.298Z,5.50
2018-04-07T03:58:59.299Z,7.40
2018-04-07T03:59:59.317Z,5.50
2018-04-07T04:00:59.310Z,7.20
2018-04-07T04:01:59.300Z,5.80
2018-04-07T04:02:59.310Z,6.80
2018-04-07T04:03:59.311Z,5.00
2018-04-07T04:04:59.306Z,6.00
2018-04-07T04:05:59.953Z,6.90
2018-04-07T04:06:59.309Z,5.50
2018-04-07T04:07:59.311Z,4.80
2018-04-07T04:08:59.308Z,6.50
2018-04-07T04:09:59.301Z,5.10
2018-04-07T04:10:59.300Z,5.30
2018-04-07T04:11:59.305Z,6.30
2018-04-07T04:12:59.311Z,6.90
2018-04-07T04:13:59.295Z,5.10
2018-04-07T04:14:59.311Z,6.60
2018-04-07T04:15:59.296Z,6.40
2018-04-07T04:16:59.306Z,6.80
2018-04-07T04:17:59.302Z,5.40
2018-04-07T04:18:59.311Z,7.70
2018-04-07T04:19:59.294Z,5.10
2018-04-07T04:20:59.298Z,4.80
2018-04-07T04:21:59.285Z,5.70
2018-04-07T04:22:59.298Z,6.30
2018-04-07T04:23:59.296Z,5.70
2018-04-07T04:24:59.306Z,6.10
2018-04-07T04:25:59.296Z,7.30
2018-04-07T04:26:59.293Z,7.70
2018-04-07T04:27:59.301Z,5.60
2018-04-07T04:28:59.286Z,7.90
2018-04-07T04:29:59.285Z,7.90
2018-04-07T04:30:59.297Z,6.70
2018-04-07T04:31:59.298Z,7.20
2018-04-07T04:32:59.289Z,8.60
2018-04-07T04:33:59.293Z,6.10
2018-04-07T04:34:59.292Z,7.00
2018-04-07T04:35:59.289Z,6.10
2018-04-07T04:36:59.319Z,6.30
2018-04-07T04:37:59.287Z,6.00
2018-04-07T04:38:59.297Z,6.30
2018-04-07T04:39:59.297Z,6.80
2018-04-07T04:40:59.292Z,6.00
2018-04-07T04:41:59.289Z,6.80
2018-04-07T04:42:59.293Z,7.00
2018-04-07T04:43:59.289Z,6.20
2018-04-07T04:44:59.282Z,7.10
2018-04-07T04:45:59.292Z,9.10
2018-04-07T04:46:59.313Z,8.20
2018-04-07T04:47:59.285Z,7.30
2018-04-07T04:48:59.297Z,6.60
2018-04-07T04:49:59.289Z,5.70
2018-04-07T04:50:59.281Z,10.30
2018-04-07T04:51:59.292Z,5.50
2018-04-07T04:52:59.287Z,6.60
2018-04-07T04:53:59.281Z,6.00
2018-04-07T04:54:59.274Z,6.00
2018-04-07T04:55:59.279Z,5.90
2018-04-07T04:56:59.286Z,7.10
2018-04-07T04:57:59.277Z,5.00
2018-04-07T04:58:59.275Z,5.50
2018-04-07T04:59:59.285Z,5.20
2018-04-07T05:00:59.288Z,6.60
2018-04-07T05:01:59.273Z,6.10
2018-04-07T05:02:59.283Z,6.70
2018-04-07T05:03:59.300Z,5.80
2018-04-07T05:04:59.280Z,6.40
2018-04-07T05:05:59.278Z,7.80
2018-04-07T05:06:59.271Z,6.10
2018-04-07T05:07:59.271Z,6.70
2018-04-07T05:08:59.277Z,6.30
2018-04-07T05:09:59.282Z,8.10
2018-04-07T05:10:59.275Z,7.40
2018-04-07T05:11:59.305Z,5.90
2018-04-07T05:12:59.267Z,5.20
2018-04-07T05:13:59.294Z,8.10
2018-04-07T05:14:59.319Z,8.40
2018-04-07T05:15:59.280Z,7.10
2018-04-07T05:16:59.267Z,6.20
2018-04-07T05:17:59.267Z,6.60
2018-04-07T05:18:59.278Z,7.40
2018-04-07T05:19:59.274Z,5.60
2018-04-07T05:20:59.283Z,5.80
2018-04-07T05:21:59.270Z,6.50
2018-04-07T05:22:59.263Z,6.30
2018-04-07T05:23:59.262Z,8.20
2018-04-07T05:24:59.272Z,6.40
2018-04-07T05:25:59.272Z,6.60
2018-04-07T05:26:59.266Z,6.30
2018-04-07T05:27:59.262Z,6.80
2018-04-07T05:28:59.276Z,7.10
2018-04-07T05:29:59.273Z,6.90
2018-04-07T05:30:59.280Z,6.30
2018-04-07T05:31:59.295Z,7.50
2018-04-07T05:32:59.274Z,8.00
2018-04-07T05:33:59.271Z,7.10
2018-04-07T05:34:59.265Z,6.80
2018-04-07T05:35:59.257Z,6.80
2018-04-07T05:36:59.266Z,6.40
2018-04-07T05:37:59.267Z,8.30
2018-04-07T05:38:59.258Z,6.70
2018-04-07T05:39:59.262Z,5.90
2018-04-07T05:40:59.282Z,7.50
2018-04-07T05:41:59.963Z,6.90
2018-04-07T05:42:59.290Z,5.90
2018-04-07T05:43:59.281Z,7.90
2018-04-07T05:44:59.264Z,8.70
2018-04-07T05:45:59.262Z,7.40
2018-04-07T05:46:59.267Z,8.70
2018-04-07T05:47:59.262Z,5.90
2018-04-07T05:48:59.268Z,6.30
2018-04-07T05:49:59.278Z,8.90
2018-04-07T05:50:59.285Z,7.40
2018-04-07T05:51:59.269Z,6.70
2018-04-07T05:52:59.270Z,6.20
2018-04-07T05:53:59.962Z,7.10
2018-04-07T05:54:59.272Z,5.80
2018-04-07T05:55:59.297Z,7.00
2018-04-07T05:56:59.273Z,7.90
2018-04-07T05:57:59.410Z,6.60
2018-04-07T05:58:59.307Z,7.00
2018-04-07T05:59:59.294Z,8.00
2018-04-07T06:00:59.285Z,9.10
2018-04-07T06:01:59.281Z,6.00
2018-04-07T06:02:59.287Z,7.00
2018-04-07T06:03:59.293Z,6.60
2018-04-07T06:04:59.292Z,6.80
2018-04-07T06:05:59.291Z,6.90
2018-04-07T06:06:59.294Z,6.50
2018-04-07T06:07:59.297Z,7.50
2018-04-07T06:08:59.311Z,6.60
2018-04-07T06:09:59.309Z,6.80
2018-04-07T06:10:59.296Z,6.20
2018-04-07T06:11:59.969Z,7.20
2018-04-07T06:12:59.384Z,6.50
2018-04-07T06:13:59.318Z,8.60
2018-04-07T06:14:59.314Z,5.60
2018-04-07T06:15:59.367Z,6.90
2018-04-07T06:16:59.317Z,6.70
2018-04-07T06:17:59.337Z,8.20
2018-04-07T06:18:59.313Z,7.80
2018-04-07T06:19:59.315Z,7.70
2018-04-07T06:20:59.341Z,7.70
2018-04-07T06:21:59.338Z,9.40
2018-04-07T06:22:59.333Z,7.60
2018-04-07T06:23:59.336Z,6.60
2018-04-07T06:24:59.348Z,9.00
2018-04-07T06:25:59.346Z,6.30
2018-04-07T06:26:59.341Z,8.00
2018-04-07T06:27:59.345Z,7.20
2018-04-07T06:28:59.355Z,6.70
2018-04-07T06:29:59.361Z,8.30
2018-04-07T06:30:59.357Z,7.30
2018-04-07T06:31:59.364Z,7.30
2018-04-07T06:32:59.372Z,6.90
2018-04-07T06:33:59.377Z,8.10
2018-04-07T06:34:59.372Z,7.80
2018-04-07T06:35:59.377Z,7.60
2018-04-07T06:36:59.388Z,6.20
2018-04-07T06:37:59.387Z,6.30
2018-04-07T06:38:59.396Z,7.40
2018-04-07T06:39:59.398Z,8.60
2018-04-07T06:40:59.404Z,7.10
2018-04-07T06:41:59.398Z,7.40
2018-04-07T06:42:59.409Z,6.60
2018-04-07T06:43:59.405Z,6.90
2018-04-07T06:44:59.432Z,7.80
2018-04-07T06:45:59.422Z,6.90
2018-04-07T06:46:59.429Z,7.10
2018-04-07T06:47:59.451Z,7.20
2018-04-07T06:48:59.439Z,6.50
2018-04-07T06:49:59.434Z,7.70
2018-04-07T06:50:59.437Z,7.30
2018-04-07T06:51:59.442Z,7.50
2018-04-07T06:52:59.452Z,7.20
2018-04-07T06:53:59.455Z,10.20
2018-04-07T06:54:59.509Z,7.80
2018-04-07T06:55:59.453Z,12.70
2018-04-07T06:56:59.466Z,13.00
2018-04-07T06:57:59.478Z,8.80
2018-04-07T06:58:59.478Z,7.50
2018-04-07T06:59:59.471Z,10.10
2018-04-07T07:00:59.482Z,13.00
2018-04-07T07:01:59.489Z,9.70
2018-04-07T07:02:59.489Z,10.40
2018-04-07T07:03:59.493Z,12.70
2018-04-07T07:04:59.499Z,14.20
2018-04-07T07:05:59.514Z,16.20
2018-04-07T07:06:59.518Z,9.70
2018-04-07T07:07:59.518Z,9.80
2018-04-07T07:08:59.526Z,10.40
2018-04-07T07:09:59.529Z,9.10
2018-04-07T07:10:59.536Z,9.20
2018-04-07T07:11:59.533Z,8.00
2018-04-07T07:12:59.553Z,7.90
2018-04-07T07:13:59.563Z,9.20
2018-04-07T07:14:59.547Z,7.70
2018-04-07T07:15:59.553Z,7.30
2018-04-07T07:17:00.499Z,8.50
2018-04-07T07:17:59.562Z,7.70
2018-04-07T07:18:59.581Z,7.90
2018-04-07T07:19:59.578Z,7.80
2018-04-07T07:20:59.578Z,8.50
2018-04-07T07:21:59.587Z,8.90
2018-04-07T07:22:59.704Z,8.30
2018-04-07T07:23:59.589Z,8.10
2018-04-07T07:24:59.595Z,7.80
2018-04-07T07:25:59.614Z,7.10
2018-04-07T07:26:59.674Z,9.00
2018-04-07T07:27:59.615Z,11.70
2018-04-07T07:29:00.510Z,8.00
2018-04-07T07:29:59.618Z,8.00
2018-04-07T07:30:59.634Z,9.00
2018-04-07T07:31:59.635Z,8.60
2018-04-07T07:33:00.510Z,10.70
2018-04-07T07:33:59.650Z,10.40
2018-04-07T07:34:59.645Z,8.10
2018-04-07T07:35:59.679Z,8.10
2018-04-07T07:36:59.664Z,8.10
2018-04-07T07:37:59.675Z,8.00
2018-04-07T07:38:59.675Z,8.80
2018-04-07T07:39:59.677Z,8.30
2018-04-07T07:40:59.676Z,8.90
2018-04-07T07:41:59.715Z,8.00
2018-04-07T07:42:59.720Z,8.40
2018-04-07T07:43:59.697Z,8.90
2018-04-07T07:44:59.707Z,8.50
2018-04-07T07:45:59.714Z,8.50
2018-04-07T07:46:59.732Z,8.20
2018-04-07T07:47:59.729Z,9.00
2018-04-07T07:48:59.733Z,9.10
2018-04-07T07:49:59.750Z,8.10
2018-04-07T07:50:59.746Z,8.80
2018-04-07T07:51:59.763Z,10.20
2018-04-07T07:52:59.802Z,8.40
2018-04-07T07:53:59.784Z,9.40
2018-04-07T07:54:59.784Z,9.10
2018-04-07T07:55:59.789Z,8.70
2018-04-07T07:56:59.798Z,8.60
2018-04-07T07:57:59.800Z,9.20
2018-04-07T07:58:59.813Z,8.90
2018-04-07T07:59:59.837Z,9.50
2018-04-07T08:01:00.525Z,8.50
2018-04-07T08:01:59.847Z,9.20
2018-04-07T08:02:59.853Z,8.80
2018-04-07T08:03:59.863Z,8.80
2018-04-07T08:04:59.867Z,9.40
2018-04-07T08:05:59.865Z,8.10
2018-04-07T08:06:59.943Z,9.40
2018-04-07T08:07:59.893Z,8.80
2018-04-07T08:08:59.896Z,8.30
2018-04-07T08:09:59.900Z,10.20
2018-04-07T08:11:00.539Z,9.90
2018-04-07T08:11:59.925Z,9.50
2018-04-07T08:12:59.940Z,9.10
2018-04-07T08:13:59.943Z,9.90
2018-04-07T08:14:59.955Z,10.80
2018-04-07T08:15:59.953Z,8.80
2018-04-07T08:16:59.982Z,9.20
2018-04-07T08:17:59.977Z,9.10
2018-04-07T08:18:59.985Z,8.90
2018-04-07T08:20:00.027Z,10.20
2018-04-07T08:21:00.011Z,10.20
2018-04-07T08:22:00.023Z,9.80
2018-04-07T08:23:00.037Z,9.60
2018-04-07T08:24:00.048Z,9.40
2018-04-07T08:25:00.045Z,9.80
2018-04-07T08:26:00.058Z,9.00
2018-04-07T08:27:00.066Z,8.90
2018-04-07T08:28:00.082Z,9.90
2018-04-07T08:29:00.090Z,9.40
2018-04-07T08:30:00.104Z,9.30
2018-04-07T08:31:00.128Z,8.90
2018-04-07T08:32:00.191Z,9.60
2018-04-07T08:33:00.159Z,8.70
2018-04-07T08:34:00.159Z,9.10
2018-04-07T08:35:00.180Z,9.60
2018-04-07T08:36:00.180Z,8.90
2018-04-07T08:37:00.188Z,8.80
2018-04-07T08:38:00.201Z,10.50
2018-04-07T08:39:00.209Z,8.50
2018-04-07T08:40:00.223Z,9.40
2018-04-07T08:41:00.246Z,8.90
2018-04-07T08:42:00.315Z,8.70
2018-04-07T08:43:00.268Z,9.40
2018-04-07T08:44:00.274Z,8.50
2018-04-07T08:45:00.290Z,9.10
2018-04-07T08:46:00.295Z,9.20
2018-04-07T08:47:00.319Z,9.50
2018-04-07T08:48:00.334Z,9.70
2018-04-07T08:49:00.345Z,8.60
2018-04-07T08:50:00.347Z,9.80
2018-04-07T08:51:00.410Z,9.60
2018-04-07T08:52:00.386Z,10.40
2018-04-07T08:53:00.407Z,10.00
2018-04-07T08:54:00.424Z,10.50
2018-04-07T08:55:00.429Z,10.90
2018-04-07T08:56:00.431Z,9.30
2018-04-07T08:57:00.453Z,9.80
2018-04-07T08:58:00.463Z,11.70
2018-04-07T08:59:00.486Z,9.70
2018-04-07T09:00:00.502Z,9.20
2018-04-07T09:01:00.501Z,9.60
2018-04-07T09:02:00.532Z,9.70
2018-04-07T09:03:00.536Z,10.10
2018-04-07T09:04:00.569Z,11.40
2018-04-07T09:05:00.582Z,9.50
2018-04-07T09:06:00.580Z,10.10
2018-04-07T09:07:00.603Z,11.20
2018-04-07T09:08:00.676Z,11.80
2018-04-07T09:09:00.632Z,10.10
2018-04-07T09:10:00.653Z,9.80
2018-04-07T09:11:00.666Z,10.10
2018-04-07T09:12:00.684Z,10.00
2018-04-07T09:13:01.568Z,10.30
2018-04-07T09:14:00.736Z,10.50
2018-04-07T09:15:00.739Z,12.70
2018-04-07T09:16:00.740Z,10.70
2018-04-07T09:17:00.767Z,10.10
2018-04-07T09:18:00.780Z,10.70
2018-04-07T09:19:00.837Z,10.70
2018-04-07T09:20:00.811Z,10.80
2018-04-07T09:21:00.831Z,10.40
2018-04-07T09:22:00.848Z,11.00
2018-04-07T09:23:00.858Z,11.40
2018-04-07T09:24:00.879Z,10.40
2018-04-07T09:25:00.909Z,10.20
2018-04-07T09:26:00.898Z,10.30
2018-04-07T09:27:00.915Z,10.50
2018-04-07T09:28:00.935Z,10.30
2018-04-07T09:29:00.958Z,12.10
2018-04-07T09:30:01.005Z,10.90
2018-04-07T09:31:01.001Z,10.20
2018-04-07T09:32:01.043Z,10.20
2018-04-07T09:33:01.022Z,11.10
2018-04-07T09:34:01.035Z,10.10
2018-04-07T09:35:01.072Z,11.00
2018-04-07T09:36:01.080Z,10.70
2018-04-07T09:37:01.089Z,10.30
2018-04-07T09:38:01.103Z,10.00
2018-04-07T09:39:01.136Z,10.10
2018-04-07T09:40:01.185Z,10.80
2018-04-07T09:41:01.154Z,10.20
2018-04-07T09:42:01.178Z,10.70
2018-04-07T09:43:01.192Z,10.40
2018-04-07T09:44:01.238Z,10.20
2018-04-07T09:45:01.248Z,10.20
2018-04-07T09:46:01.238Z,10.00
2018-04-07T09:47:01.260Z,10.20
2018-04-07T09:48:01.306Z,10.10
2018-04-07T09:49:01.300Z,10.90
2018-04-07T09:50:01.318Z,10.60
2018-04-07T09:51:01.351Z,10.40
2018-04-07T09:52:01.369Z,10.80
2018-04-07T09:53:01.359Z,10.60
2018-04-07T09:54:01.399Z,11.20
2018-04-07T09:55:01.389Z,10.70
2018-04-07T09:56:01.413Z,10.40
2018-04-07T09:57:01.431Z,9.90
2018-04-07T09:58:01.456Z,10.30
2018-04-07T10:00:33.904Z,10.10
2018-04-07T10:01:33.929Z,10.30
2018-04-07T10:02:33.905Z,10.10
2018-04-07T10:03:34.224Z,10.30
2018-04-07T10:04:33.983Z,9.50
2018-04-07T10:05:33.911Z,10.50
2018-04-07T10:06:33.923Z,10.40
2018-04-07T10:07:33.924Z,10.80
2018-04-07T10:08:34.009Z,10.10
2018-04-07T10:09:33.952Z,9.70
2018-04-07T10:10:34.035Z,9.60
2018-04-07T10:11:34.023Z,9.80
2018-04-07T10:12:34.057Z,9.90
2018-04-07T10:13:34.047Z,9.80
2018-04-07T10:14:34.078Z,9.90
2018-04-07T10:15:34.149Z,10.00
2018-04-07T10:16:34.066Z,10.00
2018-04-07T10:17:34.116Z,9.70
2018-04-07T10:18:34.178Z,10.20
2018-04-07T10:19:34.137Z,9.70
2018-04-07T10:20:34.197Z,10.10
2018-04-07T10:21:34.231Z,10.40
2018-04-07T10:22:35.249Z,10.50
2018-04-07T10:23:34.236Z,10.50
2018-04-07T10:24:34.289Z,10.50
2018-04-07T10:25:34.281Z,11.10
2018-04-07T10:26:34.262Z,10.60
2018-04-07T10:27:34.364Z,11.30
2018-04-07T10:28:34.352Z,10.50
2018-04-07T10:29:34.326Z,10.80
2018-04-07T10:30:34.401Z,10.40
2018-04-07T10:32:10.241Z,10.60
2018-04-07T10:36:38.791Z,10.90
2018-04-07T10:37:38.780Z,10.30
2018-04-07T10:38:38.797Z,9.40
2018-04-07T10:39:38.815Z,11.00
2018-04-07T10:40:38.858Z,11.00
2018-04-07T10:41:38.854Z,10.40
2018-04-07T10:42:38.871Z,10.20
2018-04-07T10:43:38.909Z,10.20
2018-04-07T10:44:38.920Z,10.20
2018-04-07T10:45:38.920Z,10.80
2018-04-07T10:46:38.954Z,10.30
2018-04-07T10:47:38.967Z,10.80
2018-04-07T10:48:38.999Z,9.80
2018-04-07T10:49:39.005Z,9.90
2018-04-07T10:50:39.793Z,10.80
2018-04-07T10:51:39.050Z,10.00
2018-04-07T10:52:39.120Z,9.80
2018-04-07T10:53:39.070Z,9.80
2018-04-07T10:54:39.102Z,11.00
2018-04-07T10:55:39.133Z,10.10
2018-04-07T10:56:39.143Z,10.90
2018-04-07T10:57:39.168Z,10.60
2018-04-07T10:58:39.172Z,10.80
2018-04-07T10:59:39.195Z,9.50
2018-04-07T11:00:39.220Z,10.10
2018-04-07T11:01:39.251Z,9.50
2018-04-07T11:02:39.259Z,11.30
2018-04-07T11:03:39.270Z,10.50
2018-04-07T11:04:39.289Z,10.10
2018-04-07T11:05:39.316Z,11.00
2018-04-07T11:06:39.344Z,11.00
2018-04-07T11:07:39.352Z,10.10
2018-04-07T11:08:39.372Z,10.90
2018-04-07T11:09:39.388Z,10.50
2018-04-07T11:10:39.398Z,10.60
2018-04-07T11:11:40.307Z,10.60
2018-04-07T11:12:39.447Z,10.40
2018-04-07T11:13:39.448Z,10.30
2018-04-07T11:14:39.468Z,10.50
2018-04-07T11:15:39.488Z,10.80
2018-04-07T11:16:39.514Z,10.30
2018-04-07T11:17:39.525Z,10.60
2018-04-07T11:18:39.539Z,11.60
2018-04-07T11:19:47.322Z,11.00
2018-04-07T11:22:27.906Z,10.80
2018-04-07T11:23:12.801Z,10.60
2018-04-07T11:24:12.988Z,10.70
2018-04-07T11:25:12.797Z,11.00
2018-04-07T11:26:12.801Z,13.10
2018-04-07T11:27:12.801Z,10.50
2018-04-07T11:28:12.847Z,11.00
2018-04-07T11:29:12.885Z,10.50
2018-04-07T11:30:12.892Z,10.90
2018-04-07T11:31:12.878Z,10.60
2018-04-07T11:32:12.907Z,11.00
2018-04-07T11:33:12.888Z,12.00
2018-04-07T11:34:12.976Z,10.90
2018-04-07T11:35:12.932Z,11.20
2018-04-07T11:36:12.915Z,10.80
2018-04-07T11:37:12.947Z,10.20
2018-04-07T11:38:12.987Z,9.80
2018-04-07T11:39:13.024Z,10.80
2018-04-07T11:40:13.012Z,11.10
2018-04-07T11:41:12.965Z,10.80
2018-04-07T11:42:12.986Z,10.60
2018-04-07T11:43:13.014Z,11.50
2018-04-07T11:44:44.721Z,11.00
2018-04-07T11:45:13.793Z,11.00
2018-04-07T11:46:13.046Z,11.60
2018-04-07T11:47:13.045Z,10.10
2018-04-07T11:48:13.049Z,11.00
2018-04-07T11:49:13.054Z,11.20
2018-04-07T11:50:13.130Z,10.80
2018-04-07T11:51:13.073Z,10.10
2018-04-07T11:52:13.105Z,10.80
2018-04-07T11:53:13.089Z,10.70
2018-04-07T11:54:13.136Z,10.10
2018-04-07T11:55:13.118Z,10.40
2018-04-07T11:56:13.158Z,10.00
2018-04-07T11:57:13.119Z,10.60
2018-04-07T11:58:13.152Z,10.70
2018-04-07T11:59:13.221Z,10.90
2018-04-07T12:00:13.165Z,9.90
2018-04-07T12:01:13.193Z,10.00
2018-04-07T12:02:13.194Z,10.50
2018-04-07T12:03:13.207Z,9.30
2018-04-07T12:04:13.208Z,10.60
2018-04-07T12:05:13.179Z,10.70
2018-04-07T12:06:13.232Z,10.30
2018-04-07T12:07:13.274Z,11.50
2018-04-07T12:08:13.218Z,9.80
2018-04-07T12:09:13.275Z,9.80
2018-04-07T12:10:13.278Z,10.40
2018-04-07T12:11:13.223Z,10.30
2018-04-07T12:12:13.255Z,12.00
2018-04-07T12:13:13.278Z,10.30
2018-04-07T12:14:13.295Z,10.40
2018-04-07T12:15:13.279Z,10.00
2018-04-07T12:16:14.208Z,9.90
2018-04-07T12:17:13.348Z,9.70
2018-04-07T12:18:13.283Z,10.00
2018-04-07T12:19:13.333Z,10.10
2018-04-07T12:20:13.329Z,9.60
2018-04-07T12:21:13.353Z,10.60
2018-04-07T12:22:13.325Z,10.50
2018-04-07T12:23:13.385Z,10.50
2018-04-07T12:24:13.403Z,12.90
2018-04-07T12:25:13.364Z,10.10
2018-04-07T12:26:13.332Z,10.20
2018-04-07T12:27:13.369Z,9.00
2018-04-07T12:28:13.341Z,10.10
2018-04-07T12:29:13.386Z,12.00
2018-04-07T12:30:13.363Z,9.60
2018-04-07T12:31:13.377Z,9.20
2018-04-07T12:32:13.464Z,8.40
2018-04-07T12:33:13.391Z,8.80
2018-04-07T12:34:13.420Z,9.00
2018-04-07T12:35:13.448Z,12.20
2018-04-07T12:36:13.417Z,9.40
2018-04-07T12:37:13.449Z,8.90
2018-04-07T12:38:13.445Z,9.60
2018-04-07T12:39:13.434Z,8.50
2018-04-07T12:40:13.531Z,8.10
2018-04-07T12:41:13.461Z,10.40
2018-04-07T12:42:13.490Z,8.30
2018-04-07T12:43:13.472Z,7.40
2018-04-07T12:44:13.620Z,9.80
2018-04-07T12:45:13.555Z,8.60
2018-04-07T12:46:13.581Z,7.90
2018-04-07T12:47:13.502Z,7.60
2018-04-07T12:48:13.495Z,7.00
2018-04-07T12:49:13.499Z,8.70
2018-04-07T12:50:13.579Z,8.00
2018-04-07T12:51:13.610Z,7.10
2018-04-07T12:52:13.523Z,8.80
2018-04-07T12:53:13.584Z,9.50
2018-04-07T12:54:13.554Z,8.20
2018-04-07T12:55:13.571Z,8.40
2018-04-07T12:56:13.641Z,6.90
2018-04-07T12:57:13.612Z,6.50
2018-04-07T12:58:13.634Z,8.20
2018-04-07T12:59:13.658Z,7.30
2018-04-07T13:00:13.579Z,6.80
2018-04-07T13:01:13.683Z,7.10
2018-04-07T13:02:13.659Z,6.70
2018-04-07T13:03:13.632Z,6.30
2018-04-07T13:04:14.240Z,6.40
2018-04-07T13:05:13.611Z,7.20
2018-04-07T13:06:13.646Z,7.30
2018-04-07T13:07:13.690Z,7.00
2018-04-07T13:08:13.673Z,8.20
2018-04-07T13:09:13.694Z,6.70
2018-04-07T13:10:13.647Z,6.50
2018-04-07T13:11:13.681Z,5.90
2018-04-07T13:12:13.718Z,7.90
2018-04-07T13:13:13.693Z,7.80
2018-04-07T13:14:13.690Z,7.20
2018-04-07T13:15:13.686Z,7.30
2018-04-07T13:19:33.258Z,6.00
2018-04-07T13:20:19.297Z,6.00
2018-04-07T13:21:18.250Z,5.50
2018-04-07T13:22:19.243Z,5.50